In Rescue
 
Open Full Screen Window  High Contrast Mode
Wind Gusting 00 knots
07
January 20, 2022 9:43 AM EST
Weather Information
Wind Direction
  360 °
Wind Speed
  07 kt (8 mph)
Wind Gust
  00 kt (0 mph)
Altimeter
30.40 in
Visibility
10 SM
Temperature
-07° C
19° F
Dewpoint
-12° C
10° F
Humidity
68%
1hr Rain Fall
00.00 in.
24hr Rain Fall
00.00 in.
Sky Condition
Overcast @ 3,100 ft
VFR

METAR KMRT 201443Z AUTO 36007KT 10SM OVC031 M07/M12 A3040 RMK AO2 T10741125

FAA Disclaimer: The data displayed is for advisory purposes only and is not to be used for flight planning or operations.